x

Fripp Nearshore (frp 2) (41033) Weather Station

2:08am - Tue 25th Jul 2017 All times are EDT. -4 hours from GMT.

  • Wind
    16mph, 20mph gusts
  • Sea Temp 84°f
  • Air Temp 83°f
  • Sea Pressure 1015.6mb
  • Fripp Nearshore (frp 2)
  • Fripp Nearshore (frp 2)

More Historic Weather Station data

Upgrade to MSW Pro to gain access to the past 30 days of data for over 8000 Wavebouys and Weather Stations around the globe.

Join Pro

Comparision Forecast

View Surf forecast
   
Tue 07/25 2:08am 16 20 mph 1015.6mb 84f 83f
1:08am 13 18 mph 1015.7mb 84f 83f
12:08am 16 22 mph 1015.9mb 84f 82f
Mon 07/24 11:08pm 9 11 mph 1015.8mb 84f 82f
10:08pm 16 22 mph 1014.9mb 84f 82f
9:08pm 20 29 mph 1015.5mb 84f 83f
8:08pm 20 27 mph 1014.8mb 84f 83f
7:08pm 20 25 mph 1013.9mb 84f 83f
6:08pm 18 25 mph 1014.3mb 85f 83f
5:08pm 18 25 mph 1013.8mb 85f 83f
4:08pm 18 25 mph 1014.2mb 85f 83f
3:08pm 20 25 mph 1014.7mb 85f 82f
2:08pm 16 20 mph 1015.3mb 84f 83f
1:08pm 11 16 mph 1015.6mb 84f 82f
12:08pm 9 13 mph 1015.7mb 84f 80f
11:08am 13 18 mph 1015.6mb 83f 81f
10:08am 16 20 mph 1015.7mb 83f 81f
9:08am 13 20 mph 1015.3mb 83f 80f
8:08am 18 25 mph 1014.5mb 84f 80f
7:08am 20 27 mph 1014.1mb 84f 80f
6:08am 20 27 mph 1013.6mb 84f 81f
5:08am 20 25 mph 1013.4mb 84f 81f
4:08am 20 27 mph 1013.1mb 85f 82f
3:08am 22 29 mph 1012.8mb 85f 82f
2:08am 20 25 mph 1013.2mb 85f 83f
1:08am 16 22 mph 1013.5mb 85f 82f
12:08am 18 25 mph 1013.6mb 84f 83f
Sun 07/23 11:08pm 18 25 mph 1013.7mb 84f 82f
10:08pm 18 25 mph 1014mb 84f 82f
9:08pm 20 27 mph 1013.2mb 84f 82f
8:08pm 20 27 mph 1011.6mb 84f 82f
7:08pm 18 22 mph 1012.3mb 84f 83f
6:08pm 22 29 mph 1011.6mb 85f 83f
5:08pm 25 31 mph 1011.6mb 85f 82f
4:08pm 25 34 mph 1013.2mb 86f 83f
3:08pm 20 27 mph 1013.6mb 86f 83f
2:08pm 20 25 mph 1014.2mb 86f 83f
1:08pm 18 22 mph 1014.5mb 85f 83f
12:08pm 13 18 mph 1014.4mb 85f 82f
11:08am 13 16 mph 1014.7mb 84f 82f
10:08am 13 18 mph 1014.9mb 84f 82f
9:08am 16 20 mph 1015.4mb 84f 81f
8:08am 16 20 mph 1015mb 84f 80f
7:08am 16 22 mph 1014.5mb 84f 81f
6:08am 16 20 mph 1014.1mb 85f 82f
5:08am 16 20 mph 1013.5mb 85f 82f
4:08am 16 20 mph 1013.5mb 85f 82f
3:08am 16 20 mph 1014.1mb 85f 82f
2:08am 18 25 mph 1014.3mb 85f 82f
1:08am 18 25 mph 1014.4mb 85f 83f
12:08am 16 22 mph 1014.6mb 85f 83f
Sat 07/22 11:08pm 18 25 mph 1014.8mb 85f 83f
10:08pm 13 18 mph 1014.7mb 84f 84f
9:08pm 18 25 mph 1014.8mb 84f 83f
8:08pm 20 29 mph 1014.2mb 84f 83f
7:08pm 18 25 mph 1013.9mb 85f 84f
6:08pm 20 25 mph 1014.1mb 85f 84f
5:08pm 18 22 mph 1014.4mb 85f 83f
4:08pm 13 18 mph 1014.3mb 86f 83f
3:08pm 11 13 mph 1015.4mb 86f 83f
2:08pm 11 13 mph 1016.4mb 86f 83f
1:08pm 9 13 mph 1017.3mb 87f 83f
12:08pm 9 11 mph 1017.8mb 86f 83f
11:08am 7 11 mph 1018mb 85f 83f
10:08am 4 7 mph 1017.9mb 84f 83f
9:08am 7 9 mph 1017.5mb 84f 82f
8:08am 7 9 mph 1016.6mb 84f 83f
7:08am 9 11 mph 1015.9mb 84f 82f
6:08am 11 13 mph 1015.7mb 84f 81f
5:08am 13 20 mph 1015.2mb 84f 82f
4:08am 16 20 mph 1015mb 84f 82f
3:08am 11 16 mph 1015.2mb 84f 82f
2:08am 11 16 mph 1015.8mb 85f 83f
1:08am 16 18 mph 1016.7mb 85f 83f
12:08am 13 18 mph 1016.9mb 84f 83f
Fri 07/21 11:08pm 13 18 mph 1016.5mb 84f 83f
10:08pm 13 16 mph 1016.8mb 84f 83f
9:08pm 13 16 mph 1016.4mb 84f 83f
8:08pm 13 18 mph 1015.9mb 84f 83f
7:08pm 16 20 mph 1015.9mb 85f 84f
6:08pm 16 20 mph 1015.5mb 85f 84f
5:08pm 13 18 mph 1015.4mb 85f 83f
4:08pm 11 16 mph 1015.9mb 85f 83f
3:08pm 11 16 mph 1016.5mb 85f 83f
2:08pm 11 13 mph 1017.2mb 85f 83f
1:08pm 11 16 mph 1018.1mb 85f 83f
12:08pm 11 13 mph 1018.2mb 85f 83f
11:08am 9 13 mph 1018.3mb 85f 82f
10:08am 4 7 mph 1018mb 84f 82f
9:08am 2 4 mph 1017.7mb 84f 82f
8:08am 4 7 mph 1017.2mb 83f 81f